sensor_id;sensor_type;location;lat;lon;timestamp;pressure;altitude;pressure_sealevel;temperature;humidity
14269;BME280;7218;51.480;7.006;2023-05-07T00:00:39;100528.19;;;15.25;100.00
14269;BME280;7218;51.480;7.006;2023-05-07T00:03:07;100529.25;;;15.20;100.00
14269;BME280;7218;51.480;7.006;2023-05-07T00:05:35;100529.94;;;15.25;100.00
14269;BME280;7218;51.480;7.006;2023-05-07T00:08:03;100523.91;;;15.23;100.00
14269;BME280;7218;51.480;7.006;2023-05-07T00:10:30;100527.44;;;15.22;100.00
14269;BME280;7218;51.480;7.006;2023-05-07T00:12:56;100526.00;;;15.13;100.00
14269;BME280;7218;51.480;7.006;2023-05-07T00:15:23;100530.22;;;15.17;100.00
14269;BME280;7218;51.480;7.006;2023-05-07T00:17:49;100533.75;;;15.16;100.00
14269;BME280;7218;51.480;7.006;2023-05-07T00:20:16;100525.78;;;15.19;100.00
14269;BME280;7218;51.480;7.006;2023-05-07T00:22:43;100529.25;;;15.20;100.00
14269;BME280;7218;51.480;7.006;2023-05-07T00:25:10;100525.16;;;15.11;100.00
14269;BME280;7218;51.480;7.006;2023-05-07T00:27:36;100525.00;;;15.16;100.00
14269;BME280;7218;51.480;7.006;2023-05-07T00:30:03;100524.84;;;15.20;100.00
14269;BME280;7218;51.480;7.006;2023-05-07T00:32:30;100524.13;;;15.17;100.00
14269;BME280;7218;51.480;7.006;2023-05-07T00:34:56;100524.94;;;15.19;100.00
14269;BME280;7218;51.480;7.006;2023-05-07T00:37:23;100513.81;;;15.11;100.00
14269;BME280;7218;51.480;7.006;2023-05-07T00:39:51;100509.53;;;15.08;100.00
14269;BME280;7218;51.480;7.006;2023-05-07T00:42:17;100503.63;;;15.01;100.00
14269;BME280;7218;51.480;7.006;2023-05-07T00:44:44;100508.06;;;14.99;100.00
14269;BME280;7218;51.480;7.006;2023-05-07T00:47:10;100503.03;;;14.93;100.00
14269;BME280;7218;51.480;7.006;2023-05-07T00:49:39;100510.19;;;14.88;100.00
14269;BME280;7218;51.480;7.006;2023-05-07T00:52:06;100504.25;;;14.83;100.00
14269;BME280;7218;51.480;7.006;2023-05-07T00:54:34;100499.00;;;14.83;100.00
14269;BME280;7218;51.480;7.006;2023-05-07T00:57:03;100498.78;;;14.89;100.00
14269;BME280;7218;51.480;7.006;2023-05-07T00:59:30;100498.88;;;14.86;100.00
14269;BME280;7218;51.480;7.006;2023-05-07T01:01:57;100499.94;;;14.81;100.00
14269;BME280;7218;51.480;7.006;2023-05-07T01:04:24;100499.19;;;14.77;100.00
14269;BME280;7218;51.480;7.006;2023-05-07T01:06:51;100504.56;;;14.74;100.00
14269;BME280;7218;51.480;7.006;2023-05-07T01:09:19;100502.72;;;14.76;100.00
14269;BME280;7218;51.480;7.006;2023-05-07T01:11:46;100494.88;;;14.75;100.00
14269;BME280;7218;51.480;7.006;2023-05-07T01:14:14;100498.34;;;14.77;100.00
14269;BME280;7218;51.480;7.006;2023-05-07T01:16:41;100492.19;;;14.78;100.00
14269;BME280;7218;51.480;7.006;2023-05-07T01:19:08;100495.72;;;14.77;100.00
14269;BME280;7218;51.480;7.006;2023-05-07T01:21:37;100500.00;;;14.79;100.00
14269;BME280;7218;51.480;7.006;2023-05-07T01:24:05;100498.22;;;14.80;100.00
14269;BME280;7218;51.480;7.006;2023-05-07T01:26:32;100495.59;;;14.80;100.00
14269;BME280;7218;51.480;7.006;2023-05-07T01:28:58;100500.00;;;14.79;100.00
14269;BME280;7218;51.480;7.006;2023-05-07T01:31:25;100506.91;;;14.82;100.00
14269;BME280;7218;51.480;7.006;2023-05-07T01:33:52;100508.81;;;14.77;100.00
14269;BME280;7218;51.480;7.006;2023-05-07T01:36:20;100506.16;;;14.78;100.00
14269;BME280;7218;51.480;7.006;2023-05-07T01:38:49;100503.56;;;14.77;100.00
14269;BME280;7218;51.480;7.006;2023-05-07T01:41:18;100498.16;;;14.81;100.00
14269;BME280;7218;51.480;7.006;2023-05-07T01:43:47;100497.28;;;14.82;100.00
14269;BME280;7218;51.480;7.006;2023-05-07T01:46:14;100498.56;;;14.95;100.00
14269;BME280;7218;51.480;7.006;2023-05-07T01:48:41;100489.97;;;14.90;100.00
14269;BME280;7218;51.480;7.006;2023-05-07T01:51:11;100495.41;;;14.86;100.00
14269;BME280;7218;51.480;7.006;2023-05-07T01:53:38;100498.03;;;14.86;100.00
14269;BME280;7218;51.480;7.006;2023-05-07T01:56:06;100491.03;;;14.85;100.00
14269;BME280;7218;51.480;7.006;2023-05-07T01:58:34;100485.72;;;14.88;100.00
14269;BME280;7218;51.480;7.006;2023-05-07T02:01:00;100491.16;;;14.82;100.00
14269;BME280;7218;51.480;7.006;2023-05-07T02:03:27;100493.91;;;14.79;100.00
14269;BME280;7218;51.480;7.006;2023-05-07T02:05:53;100496.53;;;14.79;100.00
14269;BME280;7218;51.480;7.006;2023-05-07T02:08:20;100491.47;;;14.73;100.00
14269;BME280;7218;51.480;7.006;2023-05-07T02:10:46;100499.22;;;14.76;100.00
14269;BME280;7218;51.480;7.006;2023-05-07T02:13:13;100493.94;;;14.77;100.00
14269;BME280;7218;51.480;7.006;2023-05-07T02:15:40;100494.97;;;14.73;100.00
14269;BME280;7218;51.480;7.006;2023-05-07T02:18:08;100490.59;;;14.72;100.00
14269;BME280;7218;51.480;7.006;2023-05-07T02:20:35;100499.44;;;14.70;100.00
14269;BME280;7218;51.480;7.006;2023-05-07T02:23:01;100489.78;;;14.70;100.00
14269;BME280;7218;51.480;7.006;2023-05-07T02:25:28;100486.56;;;14.62;100.00
14269;BME280;7218;51.480;7.006;2023-05-07T02:27:55;100490.13;;;14.59;100.00
14269;BME280;7218;51.480;7.006;2023-05-07T02:30:21;100491.00;;;14.60;100.00
14269;BME280;7218;51.480;7.006;2023-05-07T02:32:49;100491.84;;;14.60;100.00
14269;BME280;7218;51.480;7.006;2023-05-07T02:35:15;100486.69;;;14.59;100.00
14269;BME280;7218;51.480;7.006;2023-05-07T02:37:42;100499.03;;;14.55;100.00
14269;BME280;7218;51.480;7.006;2023-05-07T02:40:10;100487.03;;;14.48;100.00
14269;BME280;7218;51.480;7.006;2023-05-07T02:42:37;100482.72;;;14.46;100.00
14269;BME280;7218;51.480;7.006;2023-05-07T02:45:04;100492.34;;;14.45;100.00
14269;BME280;7218;51.480;7.006;2023-05-07T02:47:30;100495.97;;;14.41;100.00
14269;BME280;7218;51.480;7.006;2023-05-07T02:49:58;100497.66;;;14.44;100.00
14269;BME280;7218;51.480;7.006;2023-05-07T02:52:25;100489.00;;;14.40;100.00
14269;BME280;7218;51.480;7.006;2023-05-07T02:54:51;100492.63;;;14.36;100.00
14269;BME280;7218;51.480;7.006;2023-05-07T02:57:17;100491.75;;;14.36;100.00
14269;BME280;7218;51.480;7.006;2023-05-07T02:59:44;100483.94;;;14.34;100.00
14269;BME280;7218;51.480;7.006;2023-05-07T03:02:10;100488.53;;;14.28;100.00
14269;BME280;7218;51.480;7.006;2023-05-07T03:04:38;100480.50;;;14.32;100.00
14269;BME280;7218;51.480;7.006;2023-05-07T03:07:06;100484.03;;;14.31;100.00
14269;BME280;7218;51.480;7.006;2023-05-07T03:09:32;100479.91;;;14.24;100.00
14269;BME280;7218;51.480;7.006;2023-05-07T03:11:59;100490.31;;;14.26;100.00
14269;BME280;7218;51.480;7.006;2023-05-07T03:14:26;100492.91;;;14.27;100.00
14269;BME280;7218;51.480;7.006;2023-05-07T03:16:53;100496.50;;;14.25;100.00
14269;BME280;7218;51.480;7.006;2023-05-07T03:19:19;100492.22;;;14.20;100.00
14269;BME280;7218;51.480;7.006;2023-05-07T03:21:46;100497.56;;;14.17;100.00
14269;BME280;7218;51.480;7.006;2023-05-07T03:24:13;100499.22;;;14.20;100.00
14269;BME280;7218;51.480;7.006;2023-05-07T03:26:40;100503.72;;;14.16;100.00
14269;BME280;7218;51.480;7.006;2023-05-07T03:29:06;100496.69;;;14.18;100.00
14269;BME280;7218;51.480;7.006;2023-05-07T03:31:33;100501.06;;;14.18;100.00
14269;BME280;7218;51.480;7.006;2023-05-07T03:33:59;100495.00;;;14.16;100.00
14269;BME280;7218;51.480;7.006;2023-05-07T03:36:26;100496.69;;;14.18;100.00
14269;BME280;7218;51.480;7.006;2023-05-07T03:38:53;100494.06;;;14.18;100.00
14269;BME280;7218;51.480;7.006;2023-05-07T03:41:20;100494.09;;;14.17;100.00
14269;BME280;7218;51.480;7.006;2023-05-07T03:43:47;100499.44;;;14.14;100.00
14269;BME280;7218;51.480;7.006;2023-05-07T03:46:13;100489.00;;;14.12;100.00
14269;BME280;7218;51.480;7.006;2023-05-07T03:48:40;100486.31;;;14.14;100.00
14269;BME280;7218;51.480;7.006;2023-05-07T03:51:06;100482.84;;;14.13;100.00
14269;BME280;7218;51.480;7.006;2023-05-07T03:53:33;100482.78;;;14.15;100.00
14269;BME280;7218;51.480;7.006;2023-05-07T03:55:59;100489.81;;;14.14;100.00
14269;BME280;7218;51.480;7.006;2023-05-07T03:58:27;100490.72;;;14.13;100.00
14269;BME280;7218;51.480;7.006;2023-05-07T04:00:53;100488.94;;;14.14;100.00
14269;BME280;7218;51.480;7.006;2023-05-07T04:03:20;100489.91;;;14.10;100.00
14269;BME280;7218;51.480;7.006;2023-05-07T04:05:46;100496.88;;;14.11;100.00
14269;BME280;7218;51.480;7.006;2023-05-07T04:08:13;100493.38;;;14.12;100.00
14269;BME280;7218;51.480;7.006;2023-05-07T04:10:39;100492.47;;;14.13;100.00
14269;BME280;7218;51.480;7.006;2023-05-07T04:13:06;100498.44;;;14.18;100.00
14269;BME280;7218;51.480;7.006;2023-05-07T04:15:34;100501.09;;;14.16;100.00
14269;BME280;7218;51.480;7.006;2023-05-07T04:18:01;100501.97;;;14.17;100.00
14269;BME280;7218;51.480;7.006;2023-05-07T04:20:28;100501.97;;;14.17;100.00
14269;BME280;7218;51.480;7.006;2023-05-07T04:22:54;100498.47;;;14.16;100.00
14269;BME280;7218;51.480;7.006;2023-05-07T04:25:21;100501.06;;;14.18;100.00
14269;BME280;7218;51.480;7.006;2023-05-07T04:27:51;100500.31;;;14.14;100.00
14269;BME280;7218;51.480;7.006;2023-05-07T04:30:18;100503.69;;;14.18;100.00
14269;BME280;7218;51.480;7.006;2023-05-07T04:32:46;100501.66;;;14.26;100.00
14269;BME280;7218;51.480;7.006;2023-05-07T04:35:13;100499.00;;;14.28;100.00
14269;BME280;7218;51.480;7.006;2023-05-07T04:37:39;100502.38;;;14.31;100.00
14269;BME280;7218;51.480;7.006;2023-05-07T04:40:07;100507.34;;;14.42;100.00
14269;BME280;7218;51.480;7.006;2023-05-07T04:42:33;100498.56;;;14.43;100.00
14269;BME280;7218;51.480;7.006;2023-05-07T04:45:01;100510.69;;;14.47;100.00
14269;BME280;7218;51.480;7.006;2023-05-07T04:47:28;100513.41;;;14.44;100.00
14269;BME280;7218;51.480;7.006;2023-05-07T04:49:56;100512.44;;;14.46;100.00
14269;BME280;7218;51.480;7.006;2023-05-07T04:52:23;100520.22;;;14.49;100.00
14269;BME280;7218;51.480;7.006;2023-05-07T04:54:50;100518.34;;;14.53;100.00
14269;BME280;7218;51.480;7.006;2023-05-07T04:57:16;100519.56;;;14.43;100.00
14269;BME280;7218;51.480;7.006;2023-05-07T04:59:43;100521.16;;;14.47;100.00
14269;BME280;7218;51.480;7.006;2023-05-07T05:02:09;100515.81;;;14.50;100.00
14269;BME280;7218;51.480;7.006;2023-05-07T05:04:36;100522.63;;;14.55;100.00
14269;BME280;7218;51.480;7.006;2023-05-07T05:07:04;100531.94;;;14.65;100.00
14269;BME280;7218;51.480;7.006;2023-05-07T05:09:31;100530.31;;;14.61;100.00
14269;BME280;7218;51.480;7.006;2023-05-07T05:11:57;100521.53;;;14.62;100.00
14269;BME280;7218;51.480;7.006;2023-05-07T05:14:24;100526.78;;;14.62;100.00
14269;BME280;7218;51.480;7.006;2023-05-07T05:16:50;100529.38;;;14.64;100.00
14269;BME280;7218;51.480;7.006;2023-05-07T05:19:17;100536.31;;;14.65;100.00
14269;BME280;7218;51.480;7.006;2023-05-07T05:21:43;100532.75;;;14.68;100.00
14269;BME280;7218;51.480;7.006;2023-05-07T05:24:11;100532.34;;;14.80;100.00
14269;BME280;7218;51.480;7.006;2023-05-07T05:26:37;100537.31;;;14.89;100.00
14269;BME280;7218;51.480;7.006;2023-05-07T05:29:04;100531.84;;;14.95;100.00
14269;BME280;7218;51.480;7.006;2023-05-07T05:31:30;100527.53;;;14.94;100.00
14269;BME280;7218;51.480;7.006;2023-05-07T05:33:57;100531.75;;;14.98;100.00
14269;BME280;7218;51.480;7.006;2023-05-07T05:36:23;100530.00;;;14.98;100.00
14269;BME280;7218;51.480;7.006;2023-05-07T05:38:50;100531.75;;;14.98;100.00
14269;BME280;7218;51.480;7.006;2023-05-07T05:41:17;100527.06;;;15.07;100.00
14269;BME280;7218;51.480;7.006;2023-05-07T05:43:44;100526.91;;;15.12;100.00
14269;BME280;7218;51.480;7.006;2023-05-07T05:46:10;100533.50;;;15.24;100.00
14269;BME280;7218;51.480;7.006;2023-05-07T05:48:37;100536.72;;;15.32;100.00
14269;BME280;7218;51.480;7.006;2023-05-07T05:51:03;100533.13;;;15.34;100.00
14269;BME280;7218;51.480;7.006;2023-05-07T05:53:30;100532.91;;;15.40;100.00
14269;BME280;7218;51.480;7.006;2023-05-07T05:55:56;100533.50;;;15.48;100.00
14269;BME280;7218;51.480;7.006;2023-05-07T05:58:24;100539.25;;;15.60;100.00
14269;BME280;7218;51.480;7.006;2023-05-07T06:00:50;100543.66;;;15.59;100.00
14269;BME280;7218;51.480;7.006;2023-05-07T06:03:18;100543.03;;;15.53;100.00
14269;BME280;7218;51.480;7.006;2023-05-07T06:05:45;100544.63;;;15.57;100.00
14269;BME280;7218;51.480;7.006;2023-05-07T06:08:11;100541.50;;;15.70;100.00
14269;BME280;7218;51.480;7.006;2023-05-07T06:10:38;100546.28;;;15.84;100.00
14269;BME280;7218;51.480;7.006;2023-05-07T06:13:04;100538.06;;;15.93;100.00
14269;BME280;7218;51.480;7.006;2023-05-07T06:15:32;100541.75;;;16.11;100.00
14269;BME280;7218;51.480;7.006;2023-05-07T06:17:58;100546.78;;;16.17;100.00
14269;BME280;7218;51.480;7.006;2023-05-07T06:20:25;100549.94;;;16.26;100.00
14269;BME280;7218;51.480;7.006;2023-05-07T06:22:51;100552.88;;;16.41;100.00
14269;BME280;7218;51.480;7.006;2023-05-07T06:25:19;100554.09;;;16.54;100.00
14269;BME280;7218;51.480;7.006;2023-05-07T06:27:45;100550.97;;;16.67;100.00
14269;BME280;7218;51.480;7.006;2023-05-07T06:30:12;100558.97;;;16.64;100.00
14269;BME280;7218;51.480;7.006;2023-05-07T06:32:40;100562.19;;;16.72;100.00
14269;BME280;7218;51.480;7.006;2023-05-07T06:35:07;100561.19;;;16.75;100.00
14269;BME280;7218;51.480;7.006;2023-05-07T06:37:34;100571.28;;;16.86;100.00
14269;BME280;7218;51.480;7.006;2023-05-07T06:40:04;100564.06;;;16.91;100.00
14269;BME280;7218;51.480;7.006;2023-05-07T06:42:31;100564.38;;;16.83;100.00
14269;BME280;7218;51.480;7.006;2023-05-07T06:44:57;100561.03;;;17.00;100.00
14269;BME280;7218;51.480;7.006;2023-05-07T06:47:24;100561.41;;;17.12;100.00
14269;BME280;7218;51.480;7.006;2023-05-07T06:49:51;100556.81;;;17.17;100.00
14269;BME280;7218;51.480;7.006;2023-05-07T06:52:18;100563.50;;;17.25;100.00
14269;BME280;7218;51.480;7.006;2023-05-07T06:54:44;100557.06;;;17.32;100.00
14269;BME280;7218;51.480;7.006;2023-05-07T06:57:11;100559.97;;;17.46;100.00
14269;BME280;7218;51.480;7.006;2023-05-07T06:59:37;100550.75;;;17.56;100.00
14269;BME280;7218;51.480;7.006;2023-05-07T07:02:04;100547.72;;;17.65;100.00
14269;BME280;7218;51.480;7.006;2023-05-07T07:04:30;100549.91;;;17.76;100.00
14269;BME280;7218;51.480;7.006;2023-05-07T07:06:58;100548.78;;;17.81;100.00
14269;BME280;7218;51.480;7.006;2023-05-07T07:09:24;100557.28;;;17.88;100.00
14269;BME280;7218;51.480;7.006;2023-05-07T07:11:51;100557.13;;;17.91;99.86
14269;BME280;7218;51.480;7.006;2023-05-07T07:14:17;100561.06;;;18.01;99.44
14269;BME280;7218;51.480;7.006;2023-05-07T07:16:44;100565.00;;;18.11;98.81
14269;BME280;7218;51.480;7.006;2023-05-07T07:19:11;100565.84;;;18.12;97.89
14269;BME280;7218;51.480;7.006;2023-05-07T07:21:40;100563.59;;;18.23;96.72
14269;BME280;7218;51.480;7.006;2023-05-07T07:24:08;100565.28;;;18.24;95.94
14269;BME280;7218;51.480;7.006;2023-05-07T07:26:34;100558.41;;;18.38;95.59
14269;BME280;7218;51.480;7.006;2023-05-07T07:29:01;100569.63;;;18.43;95.92
14269;BME280;7218;51.480;7.006;2023-05-07T07:31:27;100555.94;;;18.54;95.89
14269;BME280;7218;51.480;7.006;2023-05-07T07:33:53;100565.44;;;18.58;95.15
14269;BME280;7218;51.480;7.006;2023-05-07T07:36:20;100571.50;;;18.60;94.35
14269;BME280;7218;51.480;7.006;2023-05-07T07:38:46;100563.13;;;18.69;94.79
14269;BME280;7218;51.480;7.006;2023-05-07T07:41:14;100560.91;;;18.79;95.71
14269;BME280;7218;51.480;7.006;2023-05-07T07:43:40;100566.59;;;18.88;94.01
14269;BME280;7218;51.480;7.006;2023-05-07T07:46:07;100566.53;;;18.90;94.13
14269;BME280;7218;51.480;7.006;2023-05-07T07:48:33;100560.56;;;19.04;92.72
14269;BME280;7218;51.480;7.006;2023-05-07T07:51:00;100565.47;;;19.11;92.76
14269;BME280;7218;51.480;7.006;2023-05-07T07:53:26;100573.25;;;19.14;92.54
14269;BME280;7218;51.480;7.006;2023-05-07T07:55:52;100575.34;;;19.08;91.05
14269;BME280;7218;51.480;7.006;2023-05-07T07:58:20;100581.94;;;18.99;91.21
14269;BME280;7218;51.480;7.006;2023-05-07T08:00:47;100579.38;;;18.98;90.99
14269;BME280;7218;51.480;7.006;2023-05-07T08:03:13;100582.22;;;18.93;90.81
14269;BME280;7218;51.480;7.006;2023-05-07T08:05:41;100586.75;;;19.08;91.30
14269;BME280;7218;51.480;7.006;2023-05-07T08:08:08;100587.78;;;19.06;90.55
14269;BME280;7218;51.480;7.006;2023-05-07T08:10:35;100579.16;;;19.19;89.20
14269;BME280;7218;51.480;7.006;2023-05-07T08:13:03;100584.88;;;19.46;89.76
14269;BME280;7218;51.480;7.006;2023-05-07T08:15:31;100588.84;;;19.72;89.84
14269;BME280;7218;51.480;7.006;2023-05-07T08:17:58;100583.22;;;19.78;87.92
14269;BME280;7218;51.480;7.006;2023-05-07T08:20:25;100587.69;;;19.93;88.00
14269;BME280;7218;51.480;7.006;2023-05-07T08:22:52;100596.22;;;20.15;87.76
14269;BME280;7218;51.480;7.006;2023-05-07T08:25:18;100589.81;;;20.19;84.89
14269;BME280;7218;51.480;7.006;2023-05-07T08:27:45;100583.91;;;20.32;86.49
14269;BME280;7218;51.480;7.006;2023-05-07T08:30:12;100585.44;;;20.51;84.74
14269;BME280;7218;51.480;7.006;2023-05-07T08:32:40;100591.59;;;20.52;82.86
14269;BME280;7218;51.480;7.006;2023-05-07T08:35:08;100592.63;;;20.81;83.63
14269;BME280;7218;51.480;7.006;2023-05-07T08:37:34;100588.16;;;20.97;83.49
14269;BME280;7218;51.480;7.006;2023-05-07T08:40:01;100595.84;;;21.01;82.57
14269;BME280;7218;51.480;7.006;2023-05-07T08:42:28;100590.44;;;21.03;81.88
14269;BME280;7218;51.480;7.006;2023-05-07T08:44:57;100593.63;;;20.94;80.89
14269;BME280;7218;51.480;7.006;2023-05-07T08:47:29;100597.81;;;20.98;79.96
14269;BME280;7218;51.480;7.006;2023-05-07T08:49:57;100595.53;;;20.92;80.54
14269;BME280;7218;51.480;7.006;2023-05-07T08:52:24;100596.53;;;20.89;81.85
14269;BME280;7218;51.480;7.006;2023-05-07T08:54:51;100596.47;;;20.75;81.01
14269;BME280;7218;51.480;7.006;2023-05-07T08:57:18;100586.47;;;20.65;79.77
14269;BME280;7218;51.480;7.006;2023-05-07T08:59:45;100587.91;;;20.70;79.98
14269;BME280;7218;51.480;7.006;2023-05-07T09:02:11;100589.69;;;20.38;79.42
14269;BME280;7218;51.480;7.006;2023-05-07T09:04:38;100591.16;;;20.11;82.37
14269;BME280;7218;51.480;7.006;2023-05-07T09:07:05;100589.75;;;20.21;81.01
14269;BME280;7218;51.480;7.006;2023-05-07T09:09:32;100589.28;;;20.61;79.96
14269;BME280;7218;51.480;7.006;2023-05-07T09:11:59;100588.31;;;20.94;78.38
14269;BME280;7218;51.480;7.006;2023-05-07T09:14:25;100581.66;;;21.32;79.96
14269;BME280;7218;51.480;7.006;2023-05-07T09:16:52;100591.16;;;21.66;79.35
14269;BME280;7218;51.480;7.006;2023-05-07T09:19:22;100582.34;;;21.80;76.06
14269;BME280;7218;51.480;7.006;2023-05-07T09:21:48;100591.78;;;21.56;75.15
14269;BME280;7218;51.480;7.006;2023-05-07T09:24:16;100587.38;;;21.70;75.36
14269;BME280;7218;51.480;7.006;2023-05-07T09:26:43;100592.44;;;22.31;72.20
14269;BME280;7218;51.480;7.006;2023-05-07T09:29:10;100588.78;;;22.75;72.16
14269;BME280;7218;51.480;7.006;2023-05-07T09:31:37;100590.31;;;22.37;70.71
14269;BME280;7218;51.480;7.006;2023-05-07T09:34:04;100583.66;;;22.72;70.49
14269;BME280;7218;51.480;7.006;2023-05-07T09:36:31;100589.78;;;23.13;69.67
14269;BME280;7218;51.480;7.006;2023-05-07T09:38:59;100589.78;;;23.13;68.49
14269;BME280;7218;51.480;7.006;2023-05-07T09:41:30;100585.22;;;23.28;68.20
14269;BME280;7218;51.480;7.006;2023-05-07T09:43:56;100584.88;;;23.47;67.16
14269;BME280;7218;51.480;7.006;2023-05-07T09:46:27;100583.19;;;23.58;66.61
14269;BME280;7218;51.480;7.006;2023-05-07T09:48:57;100577.88;;;23.84;66.67
14269;BME280;7218;51.480;7.006;2023-05-07T09:51:29;100588.00;;;24.04;64.34
14269;BME280;7218;51.480;7.006;2023-05-07T09:53:56;100583.09;;;24.11;63.72
14269;BME280;7218;51.480;7.006;2023-05-07T09:56:29;100586.06;;;24.31;61.56
14269;BME280;7218;51.480;7.006;2023-05-07T09:58:57;100588.06;;;24.53;62.37
14269;BME280;7218;51.480;7.006;2023-05-07T10:01:25;100588.94;;;24.77;61.11
14269;BME280;7218;51.480;7.006;2023-05-07T10:03:53;100588.22;;;24.75;60.28
14269;BME280;7218;51.480;7.006;2023-05-07T10:06:20;100584.56;;;24.76;59.43
14269;BME280;7218;51.480;7.006;2023-05-07T10:08:48;100585.81;;;24.83;57.60
14269;BME280;7218;51.480;7.006;2023-05-07T10:11:16;100593.47;;;24.64;59.30
14269;BME280;7218;51.480;7.006;2023-05-07T10:13:44;100583.31;;;24.69;59.85
14269;BME280;7218;51.480;7.006;2023-05-07T10:16:12;100583.31;;;24.69;58.48
14269;BME280;7218;51.480;7.006;2023-05-07T10:18:40;100582.56;;;25.04;58.13
14269;BME280;7218;51.480;7.006;2023-05-07T10:21:07;100578.50;;;25.22;56.44
14269;BME280;7218;51.480;7.006;2023-05-07T10:23:35;100579.72;;;25.18;54.42
14269;BME280;7218;51.480;7.006;2023-05-07T10:26:04;100584.28;;;25.05;54.91
14269;BME280;7218;51.480;7.006;2023-05-07T10:28:37;100583.19;;;25.07;54.20
14269;BME280;7218;51.480;7.006;2023-05-07T10:31:18;100587.50;;;24.97;54.66
14269;BME280;7218;51.480;7.006;2023-05-07T10:33:48;100586.63;;;24.97;54.17
14269;BME280;7218;51.480;7.006;2023-05-07T10:36:17;100583.06;;;24.85;52.87
14269;BME280;7218;51.480;7.006;2023-05-07T10:38:45;100579.84;;;24.93;54.14
14269;BME280;7218;51.480;7.006;2023-05-07T10:41:11;100579.31;;;25.35;55.89
14269;BME280;7218;51.480;7.006;2023-05-07T10:43:39;100583.34;;;25.52;54.82
14269;BME280;7218;51.480;7.006;2023-05-07T10:46:13;100585.66;;;26.13;53.39
14269;BME280;7218;51.480;7.006;2023-05-07T10:49:08;100588.91;;;26.73;49.60
14269;BME280;7218;51.480;7.006;2023-05-07T10:51:37;100587.13;;;27.05;49.69
14269;BME280;7218;51.480;7.006;2023-05-07T10:54:22;100588.13;;;27.04;47.44
14269;BME280;7218;51.480;7.006;2023-05-07T10:56:50;100583.16;;;27.52;46.62
14269;BME280;7218;51.480;7.006;2023-05-07T10:59:30;100583.84;;;27.75;44.81
14269;BME280;7218;51.480;7.006;2023-05-07T11:02:00;100578.69;;;27.41;46.93
14269;BME280;7218;51.480;7.006;2023-05-07T11:04:28;100589.09;;;26.81;45.10
14269;BME280;7218;51.480;7.006;2023-05-07T11:07:25;100582.38;;;26.32;44.19
14269;BME280;7218;51.480;7.006;2023-05-07T11:09:56;100591.06;;;25.09;48.79
14269;BME280;7218;51.480;7.006;2023-05-07T11:15:43;100567.28;;;26.53;47.76
14269;BME280;7218;51.480;7.006;2023-05-07T11:18:13;100579.19;;;27.35;44.81
14269;BME280;7218;51.480;7.006;2023-05-07T11:20:48;100572.56;;;27.71;44.82
14269;BME280;7218;51.480;7.006;2023-05-07T11:23:57;100573.66;;;27.90;45.07
14269;BME280;7218;51.480;7.006;2023-05-07T11:26:25;100580.00;;;27.89;43.64
14269;BME280;7218;51.480;7.006;2023-05-07T11:28:52;100571.31;;;27.75;45.36
14269;BME280;7218;51.480;7.006;2023-05-07T11:31:24;100572.56;;;27.51;43.37
14269;BME280;7218;51.480;7.006;2023-05-07T11:33:54;100578.47;;;28.16;42.07
14269;BME280;7218;51.480;7.006;2023-05-07T11:36:22;100565.72;;;28.39;40.03
14269;BME280;7218;51.480;7.006;2023-05-07T11:38:49;100581.88;;;28.18;39.06
14269;BME280;7218;51.480;7.006;2023-05-07T11:41:16;100568.56;;;27.66;41.38
14269;BME280;7218;51.480;7.006;2023-05-07T11:43:55;100571.00;;;28.20;41.59
14269;BME280;7218;51.480;7.006;2023-05-07T11:46:22;100572.13;;;28.17;40.92
14269;BME280;7218;51.480;7.006;2023-05-07T11:48:48;100570.78;;;29.01;40.14
14269;BME280;7218;51.480;7.006;2023-05-07T11:51:20;100563.28;;;29.15;39.55
14269;BME280;7218;51.480;7.006;2023-05-07T11:53:47;100568.41;;;30.12;37.67
14269;BME280;7218;51.480;7.006;2023-05-07T11:56:15;100570.59;;;30.81;37.61
14269;BME280;7218;51.480;7.006;2023-05-07T11:58:42;100578.69;;;30.54;36.40
14269;BME280;7218;51.480;7.006;2023-05-07T12:01:10;100583.09;;;29.23;37.28
14269;BME280;7218;51.480;7.006;2023-05-07T12:03:37;100573.66;;;28.60;39.60
14269;BME280;7218;51.480;7.006;2023-05-07T12:06:07;100574.75;;;28.08;40.08
14269;BME280;7218;51.480;7.006;2023-05-07T12:08:37;100576.06;;;27.30;40.79
14269;BME280;7218;51.480;7.006;2023-05-07T12:11:07;100578.66;;;27.21;43.21
14269;BME280;7218;51.480;7.006;2023-05-07T12:13:35;100579.84;;;26.96;45.90
14269;BME280;7218;51.480;7.006;2023-05-07T12:16:02;100575.13;;;26.77;45.45
14269;BME280;7218;51.480;7.006;2023-05-07T12:18:29;100583.81;;;26.59;44.73
14269;BME280;7218;51.480;7.006;2023-05-07T12:20:56;100574.09;;;26.58;44.90
14269;BME280;7218;51.480;7.006;2023-05-07T12:23:23;100576.75;;;26.58;46.01
14269;BME280;7218;51.480;7.006;2023-05-07T12:25:51;100578.97;;;26.08;45.27
14269;BME280;7218;51.480;7.006;2023-05-07T12:28:18;100575.31;;;25.17;47.46
14269;BME280;7218;51.480;7.006;2023-05-07T12:30:47;100578.25;;;25.14;48.48
14269;BME280;7218;51.480;7.006;2023-05-07T12:33:16;100579.59;;;25.19;48.09
14269;BME280;7218;51.480;7.006;2023-05-07T12:35:43;100579.97;;;24.78;49.58
14269;BME280;7218;51.480;7.006;2023-05-07T12:38:11;100585.50;;;24.52;48.55
14269;BME280;7218;51.480;7.006;2023-05-07T12:40:39;100583.06;;;24.49;50.57
14269;BME280;7218;51.480;7.006;2023-05-07T12:43:08;100582.31;;;24.47;52.06
14269;BME280;7218;51.480;7.006;2023-05-07T12:45:37;100588.19;;;24.39;51.28
14269;BME280;7218;51.480;7.006;2023-05-07T12:48:05;100587.06;;;24.18;51.78
14269;BME280;7218;51.480;7.006;2023-05-07T12:50:31;100586.19;;;24.05;52.13
14269;BME280;7218;51.480;7.006;2023-05-07T12:52:59;100583.97;;;23.86;54.36
14269;BME280;7218;51.480;7.006;2023-05-07T12:55:28;100582.34;;;23.58;54.28
14269;BME280;7218;51.480;7.006;2023-05-07T12:57:55;100585.69;;;23.35;55.51
14269;BME280;7218;51.480;7.006;2023-05-07T13:00:37;100588.44;;;23.21;54.31